createdAt,value
2022-09-10T00:02:11.675Z,16.78
2022-09-10T00:05:39.954Z,16.77
2022-09-10T00:09:02.667Z,16.74
2022-09-10T00:12:24.471Z,16.72
2022-09-10T00:15:49.712Z,16.66
2022-09-10T00:19:11.562Z,16.60
2022-09-10T00:22:34.424Z,16.56
2022-09-10T00:25:58.062Z,16.51
2022-09-10T00:29:19.819Z,16.44
2022-09-10T00:32:43.095Z,16.37
2022-09-10T00:36:07.182Z,16.28
2022-09-10T00:39:29.219Z,16.24
2022-09-10T00:42:50.902Z,16.20
2022-09-10T00:46:12.950Z,16.13
2022-09-10T00:49:40.074Z,16.10
2022-09-10T00:53:05.989Z,16.05
2022-09-10T00:56:28.326Z,16.01
2022-09-10T00:59:59.931Z,15.93
2022-09-10T01:03:25.699Z,15.89
2022-09-10T01:06:52.362Z,15.83
2022-09-10T01:10:19.148Z,15.77
2022-09-10T01:13:53.927Z,15.70
2022-09-10T01:17:26.846Z,15.63
2022-09-10T01:21:11.593Z,15.56
2022-09-10T01:24:48.202Z,15.46
2022-09-10T01:28:18.500Z,15.36
2022-09-10T01:31:49.784Z,15.27
2022-09-10T01:35:18.214Z,15.17
2022-09-10T01:38:41.938Z,15.09
2022-09-10T01:42:04.077Z,15.02
2022-09-10T01:45:34.178Z,14.93
2022-09-10T01:49:19.751Z,14.83
2022-09-10T01:52:52.021Z,14.76
2022-09-10T01:56:25.385Z,14.67
2022-09-10T01:59:55.425Z,14.60
2022-09-10T02:03:23.825Z,14.57
2022-09-10T02:06:50.958Z,14.52
2022-09-10T02:10:12.568Z,14.48
2022-09-10T02:13:40.390Z,14.43
2022-09-10T02:17:23.022Z,14.35
2022-09-10T02:20:47.564Z,14.33
2022-09-10T02:24:12.538Z,14.32
2022-09-10T02:27:38.253Z,14.30
2022-09-10T02:31:00.118Z,14.21
2022-09-10T02:34:21.895Z,14.21
2022-09-10T02:37:46.049Z,14.18
2022-09-10T02:41:09.434Z,14.16
2022-09-10T02:44:31.174Z,14.14
2022-09-10T02:47:55.566Z,14.10
2022-09-10T02:51:19.021Z,14.04
2022-09-10T02:54:42.038Z,13.99
2022-09-10T02:58:05.146Z,13.94
2022-09-10T03:01:27.002Z,13.90
2022-09-10T03:05:00.143Z,13.87
2022-09-10T03:08:21.982Z,13.83
2022-09-10T03:11:46.520Z,13.75
2022-09-10T03:15:10.294Z,13.72
2022-09-10T03:18:32.434Z,13.67
2022-09-10T03:21:54.105Z,13.63
2022-09-10T03:25:16.257Z,13.58
2022-09-10T03:28:39.620Z,13.53
2022-09-10T03:32:02.854Z,13.50
2022-09-10T03:35:24.825Z,13.48
2022-09-10T03:38:46.756Z,13.43
2022-09-10T03:42:08.697Z,13.40
2022-09-10T03:45:31.827Z,13.35
2022-09-10T03:48:55.452Z,13.31
2022-09-10T03:52:22.658Z,13.28
2022-09-10T03:55:46.220Z,13.28
2022-09-10T03:59:08.110Z,13.27
2022-09-10T04:02:34.193Z,13.22
2022-09-10T04:05:56.242Z,13.19
2022-09-10T04:09:18.146Z,13.18
2022-09-10T04:12:39.619Z,13.12
2022-09-10T04:16:02.841Z,13.08
2022-09-10T04:19:28.116Z,13.06
2022-09-10T04:22:51.409Z,13.06
2022-09-10T04:26:14.634Z,13.02
2022-09-10T04:29:38.079Z,12.98
2022-09-10T04:33:00.807Z,12.95
2022-09-10T04:36:27.083Z,12.92
2022-09-10T04:39:49.335Z,12.88
2022-09-10T04:43:11.758Z,12.89
2022-09-10T04:46:36.277Z,12.85
2022-09-10T04:50:01.266Z,12.82
2022-09-10T04:53:25.578Z,12.81
2022-09-10T04:56:48.274Z,12.84
2022-09-10T05:00:11.237Z,12.81
2022-09-10T05:03:33.715Z,12.81
2022-09-10T05:06:56.225Z,12.78
2022-09-10T05:10:21.481Z,12.74
2022-09-10T05:13:43.526Z,12.72
2022-09-10T05:17:06.692Z,12.71
2022-09-10T05:20:29.003Z,12.72
2022-09-10T05:23:51.368Z,12.76
2022-09-10T05:27:14.531Z,12.77
2022-09-10T05:30:36.722Z,12.79
2022-09-10T05:34:01.249Z,12.80
2022-09-10T05:37:24.455Z,12.82
2022-09-10T05:40:49.213Z,12.84
2022-09-10T05:44:12.458Z,12.85
2022-09-10T05:47:34.734Z,12.84
2022-09-10T05:50:57.255Z,12.88
2022-09-10T05:54:19.478Z,12.92
2022-09-10T05:57:41.521Z,12.98
2022-09-10T06:01:08.097Z,13.03
2022-09-10T06:04:29.646Z,13.12
2022-09-10T06:07:52.614Z,13.21
2022-09-10T06:11:14.458Z,13.29
2022-09-10T06:14:40.253Z,13.38
2022-09-10T06:18:04.778Z,13.46
2022-09-10T06:21:29.405Z,13.52
2022-09-10T06:24:53.801Z,13.59
2022-09-10T06:28:16.065Z,13.69
2022-09-10T06:31:38.002Z,13.83
2022-09-10T06:35:02.089Z,13.92
2022-09-10T06:38:24.390Z,14.02
2022-09-10T06:41:49.591Z,14.10
2022-09-10T06:45:43.840Z,14.21
2022-09-10T06:49:23.158Z,14.29
2022-09-10T06:52:46.037Z,14.37
2022-09-10T06:56:11.983Z,14.45
2022-09-10T06:59:34.786Z,14.53
2022-09-10T07:02:56.599Z,14.64
2022-09-10T07:06:20.126Z,14.73
2022-09-10T07:09:47.290Z,14.84
2022-09-10T07:13:12.615Z,14.95
2022-09-10T07:16:35.530Z,15.07
2022-09-10T07:19:57.542Z,15.21
2022-09-10T07:23:27.311Z,15.28
2022-09-10T07:26:50.386Z,15.37
2022-09-10T07:30:13.531Z,15.48
2022-09-10T07:33:35.250Z,15.55
2022-09-10T07:36:56.886Z,15.67
2022-09-10T07:40:19.885Z,15.77
2022-09-10T07:43:44.375Z,15.91
2022-09-10T07:47:07.642Z,15.98
2022-09-10T07:50:29.635Z,16.10
2022-09-10T07:53:54.064Z,16.18
2022-09-10T07:57:16.543Z,16.27
2022-09-10T08:00:40.138Z,16.34
2022-09-10T08:04:06.242Z,16.48
2022-09-10T08:07:31.258Z,16.54
2022-09-10T08:10:53.670Z,16.63
2022-09-10T08:14:15.457Z,16.72
2022-09-10T08:17:42.826Z,16.82
2022-09-10T08:21:05.471Z,16.91
2022-09-10T08:24:28.179Z,16.99
2022-09-10T08:27:50.260Z,17.07
2022-09-10T08:31:13.753Z,17.21
2022-09-10T08:34:43.669Z,17.32
2022-09-10T08:38:08.567Z,17.39
2022-09-10T08:41:42.474Z,17.51
2022-09-10T08:45:15.598Z,17.62
2022-09-10T08:48:40.864Z,17.71
2022-09-10T08:52:14.073Z,17.82
2022-09-10T08:55:41.447Z,17.91
2022-09-10T08:59:11.957Z,18.00
2022-09-10T09:02:49.129Z,18.11
2022-09-10T09:06:29.066Z,18.17
2022-09-10T09:09:53.235Z,18.24
2022-09-10T09:13:33.654Z,18.32
2022-09-10T09:17:10.906Z,18.39
2022-09-10T09:20:43.063Z,18.44
2022-09-10T09:24:16.681Z,18.54
2022-09-10T09:27:47.714Z,18.66
2022-09-10T09:31:15.293Z,18.75
2022-09-10T09:34:43.114Z,18.80
2022-09-10T09:38:20.982Z,18.89
2022-09-10T09:41:55.575Z,18.98
2022-09-10T09:45:26.394Z,19.03
2022-09-10T09:48:48.932Z,19.12
2022-09-10T09:52:19.567Z,19.17
2022-09-10T09:55:44.926Z,19.26
2022-09-10T09:59:14.935Z,19.30
2022-09-10T10:02:38.671Z,19.35
2022-09-10T10:06:02.804Z,19.37
2022-09-10T10:09:28.950Z,19.38
2022-09-10T10:12:52.549Z,19.44
2022-09-10T10:16:22.871Z,19.50
2022-09-10T10:19:58.853Z,19.55
2022-09-10T10:23:36.440Z,19.62
2022-09-10T10:26:58.580Z,19.66
2022-09-10T10:30:25.164Z,19.62
2022-09-10T10:33:55.938Z,19.69
2022-09-10T10:37:29.082Z,19.77
2022-09-10T10:40:57.696Z,19.81
2022-09-10T10:44:49.299Z,19.81
2022-09-10T10:48:13.482Z,19.87
2022-09-10T10:51:46.990Z,19.91
2022-09-10T10:55:18.427Z,19.97
2022-09-10T10:58:54.592Z,20.01
2022-09-10T11:02:22.267Z,20.04
2022-09-10T11:05:48.124Z,20.09
2022-09-10T11:09:16.937Z,20.16
2022-09-10T11:12:46.585Z,20.23
2022-09-10T11:16:15.259Z,20.33
2022-09-10T11:19:43.486Z,20.37
2022-09-10T11:23:14.802Z,20.44
2022-09-10T11:26:41.478Z,20.50
2022-09-10T11:30:08.073Z,20.54
2022-09-10T11:33:37.235Z,20.58
2022-09-10T11:37:07.626Z,20.62
2022-09-10T11:40:39.722Z,20.60
2022-09-10T11:44:12.252Z,20.60
2022-09-10T11:47:39.794Z,20.64
2022-09-10T11:51:03.829Z,20.78
2022-09-10T11:54:29.761Z,20.88
2022-09-10T11:58:03.870Z,20.90
2022-09-10T12:01:39.525Z,20.91
2022-09-10T12:05:12.610Z,20.88
2022-09-10T12:08:45.978Z,20.79
2022-09-10T12:12:16.194Z,20.75
2022-09-10T12:15:39.145Z,20.85
2022-09-10T12:19:02.810Z,20.89
2022-09-10T12:22:30.492Z,20.83
2022-09-10T12:25:58.938Z,20.93
2022-09-10T12:29:33.159Z,20.83
2022-09-10T12:32:57.814Z,20.88
2022-09-10T12:36:52.760Z,20.93
2022-09-10T12:40:49.639Z,20.85
2022-09-10T12:44:45.239Z,20.77
2022-09-10T12:48:14.203Z,20.89
2022-09-10T12:51:56.665Z,20.88
2022-09-10T12:55:28.684Z,20.85
2022-09-10T12:59:07.236Z,20.87
2022-09-10T13:02:32.423Z,20.92
2022-09-10T13:05:56.652Z,20.98
2022-09-10T13:09:22.234Z,21.05
2022-09-10T13:12:45.275Z,21.04
2022-09-10T13:16:17.270Z,21.07
2022-09-10T13:19:52.549Z,21.06
2022-09-10T13:23:22.082Z,21.09
2022-09-10T13:26:52.332Z,21.09
2022-09-10T13:30:20.326Z,21.12
2022-09-10T13:33:59.026Z,21.19
2022-09-10T13:37:42.258Z,21.18
2022-09-10T13:41:26.234Z,21.23
2022-09-10T13:45:03.230Z,21.29
2022-09-10T13:48:28.187Z,21.35
2022-09-10T13:51:54.206Z,21.40
2022-09-10T13:55:20.727Z,21.46
2022-09-10T13:58:49.073Z,21.52
2022-09-10T14:02:10.857Z,21.55
2022-09-10T14:05:36.757Z,21.65
2022-09-10T14:09:04.671Z,21.74
2022-09-10T14:12:30.753Z,21.81
2022-09-10T14:15:54.429Z,21.88
2022-09-10T14:19:19.989Z,21.91
2022-09-10T14:22:41.278Z,21.95
2022-09-10T14:26:23.452Z,22.00
2022-09-10T14:29:46.355Z,22.07
2022-09-10T14:33:22.464Z,22.15
2022-09-10T14:36:44.109Z,22.25
2022-09-10T14:40:15.805Z,22.30
2022-09-10T14:43:40.951Z,22.39
2022-09-10T14:47:14.842Z,22.50
2022-09-10T14:50:36.805Z,22.58
2022-09-10T14:53:59.603Z,22.67
2022-09-10T14:57:21.114Z,22.75
2022-09-10T15:00:45.414Z,22.83
2022-09-10T15:04:06.941Z,22.87
2022-09-10T15:07:29.235Z,22.87
2022-09-10T15:10:51.184Z,22.88
2022-09-10T15:14:16.822Z,22.86
2022-09-10T15:17:41.654Z,22.82
2022-09-10T15:21:04.087Z,22.77
2022-09-10T15:24:26.427Z,22.74
2022-09-10T15:27:48.301Z,22.70
2022-09-10T15:31:11.014Z,22.67
2022-09-10T15:34:34.517Z,22.63
2022-09-10T15:37:57.447Z,22.57
2022-09-10T15:41:19.103Z,22.48
2022-09-10T15:44:41.367Z,22.40
2022-09-10T15:48:03.530Z,22.47
2022-09-10T15:51:26.954Z,22.30
2022-09-10T15:54:48.822Z,21.31
2022-09-10T15:58:10.596Z,21.02
2022-09-10T16:01:33.929Z,20.13
2022-09-10T16:04:55.603Z,19.64
2022-09-10T16:08:18.933Z,19.62
2022-09-10T16:11:42.290Z,19.16
2022-09-10T16:15:04.163Z,18.63
2022-09-10T16:18:25.805Z,18.60
2022-09-10T16:21:48.309Z,18.49
2022-09-10T16:25:12.180Z,18.47
2022-09-10T16:28:34.476Z,18.26
2022-09-10T16:31:56.380Z,17.89
2022-09-10T16:35:18.414Z,17.61
2022-09-10T16:38:41.264Z,17.56
2022-09-10T16:42:04.727Z,17.57
2022-09-10T16:45:27.320Z,17.57
2022-09-10T16:48:52.791Z,17.57
2022-09-10T16:52:14.806Z,17.55
2022-09-10T16:55:36.874Z,17.55
2022-09-10T16:59:00.392Z,17.54
2022-09-10T17:02:22.382Z,17.50
2022-09-10T17:05:46.672Z,17.45
2022-09-10T17:09:08.716Z,17.42
2022-09-10T17:12:30.490Z,17.39
2022-09-10T17:15:54.291Z,17.36
2022-09-10T17:19:18.674Z,17.36
2022-09-10T17:22:40.413Z,17.36
2022-09-10T17:26:06.372Z,17.38
2022-09-10T17:29:28.125Z,17.41
2022-09-10T17:32:51.512Z,17.37
2022-09-10T17:36:13.711Z,17.35
2022-09-10T17:39:35.841Z,17.33
2022-09-10T17:42:57.412Z,17.32
2022-09-10T17:46:22.803Z,17.28
2022-09-10T17:49:46.004Z,17.25
2022-09-10T17:53:08.036Z,17.23
2022-09-10T17:56:29.586Z,17.23
2022-09-10T17:59:51.325Z,17.19
2022-09-10T18:03:14.434Z,17.17
2022-09-10T18:06:38.150Z,17.13
2022-09-10T18:09:59.747Z,17.11
2022-09-10T18:13:21.180Z,17.11
2022-09-10T18:16:43.016Z,17.07
2022-09-10T18:20:04.803Z,17.07
2022-09-10T18:23:28.126Z,17.05
2022-09-10T18:26:51.522Z,17.05
2022-09-10T18:30:13.924Z,17.04
2022-09-10T18:33:38.371Z,17.01
2022-09-10T18:37:01.825Z,16.99
2022-09-10T18:40:25.158Z,16.96
2022-09-10T18:43:47.158Z,16.92
2022-09-10T18:47:27.836Z,16.89
2022-09-10T18:50:51.975Z,16.84
2022-09-10T18:54:15.852Z,16.82
2022-09-10T18:57:38.787Z,16.78
2022-09-10T19:01:05.958Z,16.72
2022-09-10T19:04:30.006Z,16.68
2022-09-10T19:07:52.221Z,16.64
2022-09-10T19:11:17.390Z,16.59
2022-09-10T19:14:40.610Z,16.53
2022-09-10T19:18:06.285Z,16.50
2022-09-10T19:21:30.987Z,16.43
2022-09-10T19:24:55.332Z,16.40
2022-09-10T19:28:17.431Z,16.35
2022-09-10T19:31:42.270Z,16.31
2022-09-10T19:35:03.984Z,16.27
2022-09-10T19:38:37.148Z,16.22
2022-09-10T19:41:59.485Z,16.22
2022-09-10T19:45:21.659Z,16.19
2022-09-10T19:48:46.699Z,16.14
2022-09-10T19:52:08.305Z,16.10
2022-09-10T19:55:30.079Z,16.06
2022-09-10T19:58:53.531Z,16.04
2022-09-10T20:02:15.960Z,16.01
2022-09-10T20:05:39.610Z,15.97
2022-09-10T20:09:01.853Z,15.94
2022-09-10T20:12:24.344Z,15.92
2022-09-10T20:15:46.399Z,15.90
2022-09-10T20:19:08.690Z,15.89
2022-09-10T20:22:34.694Z,15.87
2022-09-10T20:26:07.919Z,15.85
2022-09-10T20:29:32.759Z,15.85
2022-09-10T20:32:54.746Z,15.82
2022-09-10T20:36:18.541Z,15.81
2022-09-10T20:39:42.696Z,15.82
2022-09-10T20:43:04.826Z,15.83
2022-09-10T20:46:28.104Z,15.83
2022-09-10T20:49:49.566Z,15.82
2022-09-10T20:53:11.009Z,15.80
2022-09-10T20:56:33.821Z,15.77
2022-09-10T20:59:55.526Z,15.74
2022-09-10T21:03:17.541Z,15.73
2022-09-10T21:06:39.027Z,15.68
2022-09-10T21:10:00.910Z,15.64
2022-09-10T21:13:26.050Z,15.61
2022-09-10T21:16:48.241Z,15.59
2022-09-10T21:20:12.360Z,15.58
2022-09-10T21:23:33.887Z,15.52
2022-09-10T21:26:56.735Z,15.48
2022-09-10T21:30:19.474Z,15.45
2022-09-10T21:33:42.502Z,15.40
2022-09-10T21:37:04.492Z,15.37
2022-09-10T21:40:26.211Z,15.31
2022-09-10T21:43:48.617Z,15.30
2022-09-10T21:47:11.914Z,15.28
2022-09-10T21:50:33.698Z,15.26
2022-09-10T21:53:56.564Z,15.24
2022-09-10T21:57:18.382Z,15.21
2022-09-10T22:00:39.954Z,15.17
2022-09-10T22:04:04.125Z,15.16
2022-09-10T22:07:25.714Z,15.16
2022-09-10T22:10:47.742Z,15.16
2022-09-10T22:14:13.613Z,15.14
2022-09-10T22:17:35.569Z,15.15
2022-09-10T22:21:00.910Z,15.15
2022-09-10T22:24:22.542Z,15.13
2022-09-10T22:27:44.156Z,15.11
2022-09-10T22:31:10.289Z,15.08
2022-09-10T22:34:32.057Z,15.05
2022-09-10T22:37:58.645Z,15.01
2022-09-10T22:41:23.181Z,15.01
2022-09-10T22:44:44.733Z,14.98
2022-09-10T22:48:06.174Z,14.95
2022-09-10T22:51:29.551Z,14.93
2022-09-10T22:54:52.525Z,14.90
2022-09-10T22:58:14.882Z,14.89
2022-09-10T23:01:38.827Z,14.87
2022-09-10T23:05:01.249Z,14.85
2022-09-10T23:08:25.072Z,14.82
2022-09-10T23:11:48.502Z,14.80
2022-09-10T23:15:10.881Z,14.79
2022-09-10T23:18:33.021Z,14.77
2022-09-10T23:21:56.033Z,14.72
2022-09-10T23:25:18.514Z,14.67
2022-09-10T23:28:42.884Z,14.65
2022-09-10T23:32:04.529Z,14.61
2022-09-10T23:35:26.456Z,14.57
2022-09-10T23:38:48.550Z,14.52
2022-09-10T23:42:10.323Z,14.51
2022-09-10T23:45:33.281Z,14.48
2022-09-10T23:48:54.999Z,14.43
2022-09-10T23:52:17.634Z,14.40
2022-09-10T23:55:40.137Z,14.37
2022-09-10T23:59:01.530Z,14.36
